sensor_id;sensor_type;location;lat;lon;timestamp;temperature;humidity
16829;DHT22;8531;48.078;11.968;2022-12-20T00:00:16;0.60;99.90
16829;DHT22;8531;48.078;11.968;2022-12-20T00:02:41;0.60;99.90
16829;DHT22;8531;48.078;11.968;2022-12-20T00:05:07;0.60;99.90
16829;DHT22;8531;48.078;11.968;2022-12-20T00:07:33;0.60;99.90
16829;DHT22;8531;48.078;11.968;2022-12-20T00:09:59;0.50;99.90
16829;DHT22;8531;48.078;11.968;2022-12-20T00:12:25;0.60;99.90
16829;DHT22;8531;48.078;11.968;2022-12-20T00:14:50;0.70;99.90
16829;DHT22;8531;48.078;11.968;2022-12-20T00:17:16;0.70;99.90
16829;DHT22;8531;48.078;11.968;2022-12-20T00:19:43;0.60;99.90
16829;DHT22;8531;48.078;11.968;2022-12-20T00:22:09;0.70;99.90
16829;DHT22;8531;48.078;11.968;2022-12-20T00:24:35;0.70;99.90
16829;DHT22;8531;48.078;11.968;2022-12-20T00:27:01;0.70;99.90
16829;DHT22;8531;48.078;11.968;2022-12-20T00:29:26;0.70;99.90
16829;DHT22;8531;48.078;11.968;2022-12-20T00:31:52;0.60;99.90
16829;DHT22;8531;48.078;11.968;2022-12-20T00:34:18;0.60;99.90
16829;DHT22;8531;48.078;11.968;2022-12-20T00:36:43;0.60;99.90
16829;DHT22;8531;48.078;11.968;2022-12-20T00:39:09;0.50;99.90
16829;DHT22;8531;48.078;11.968;2022-12-20T00:41:35;0.60;99.90
16829;DHT22;8531;48.078;11.968;2022-12-20T00:44:02;0.60;99.90
16829;DHT22;8531;48.078;11.968;2022-12-20T00:46:29;0.60;99.90
16829;DHT22;8531;48.078;11.968;2022-12-20T00:48:56;0.50;99.90
16829;DHT22;8531;48.078;11.968;2022-12-20T00:51:24;0.50;99.90
16829;DHT22;8531;48.078;11.968;2022-12-20T00:53:49;0.50;99.90
16829;DHT22;8531;48.078;11.968;2022-12-20T00:56:16;0.50;99.90
16829;DHT22;8531;48.078;11.968;2022-12-20T00:58:42;0.40;99.90
16829;DHT22;8531;48.078;11.968;2022-12-20T01:01:23;0.50;99.90
16829;DHT22;8531;48.078;11.968;2022-12-20T01:03:50;0.40;99.90
16829;DHT22;8531;48.078;11.968;2022-12-20T01:06:17;0.40;99.90
16829;DHT22;8531;48.078;11.968;2022-12-20T01:08:43;0.40;99.90
16829;DHT22;8531;48.078;11.968;2022-12-20T01:11:15;0.40;99.90
16829;DHT22;8531;48.078;11.968;2022-12-20T01:13:44;0.40;99.90
16829;DHT22;8531;48.078;11.968;2022-12-20T01:18:37;0.50;99.90
16829;DHT22;8531;48.078;11.968;2022-12-20T01:21:05;0.50;99.90
16829;DHT22;8531;48.078;11.968;2022-12-20T01:23:31;0.40;99.90
16829;DHT22;8531;48.078;11.968;2022-12-20T01:26:01;0.40;99.90
16829;DHT22;8531;48.078;11.968;2022-12-20T01:28:27;0.40;99.90
16829;DHT22;8531;48.078;11.968;2022-12-20T01:30:53;0.50;99.90
16829;DHT22;8531;48.078;11.968;2022-12-20T01:33:19;0.50;99.90
16829;DHT22;8531;48.078;11.968;2022-12-20T01:36:01;0.60;99.90
16829;DHT22;8531;48.078;11.968;2022-12-20T01:38:27;0.60;99.90
16829;DHT22;8531;48.078;11.968;2022-12-20T01:40:54;0.60;99.90
16829;DHT22;8531;48.078;11.968;2022-12-20T01:43:20;0.60;99.90
16829;DHT22;8531;48.078;11.968;2022-12-20T01:45:46;0.70;99.90
16829;DHT22;8531;48.078;11.968;2022-12-20T01:48:15;0.60;99.90
16829;DHT22;8531;48.078;11.968;2022-12-20T01:50:44;0.70;99.90
16829;DHT22;8531;48.078;11.968;2022-12-20T01:53:10;0.70;99.90
16829;DHT22;8531;48.078;11.968;2022-12-20T01:55:36;0.70;99.90
16829;DHT22;8531;48.078;11.968;2022-12-20T01:58:08;0.80;99.90
16829;DHT22;8531;48.078;11.968;2022-12-20T02:00:34;0.90;99.90
16829;DHT22;8531;48.078;11.968;2022-12-20T02:03:05;0.90;99.90
16829;DHT22;8531;48.078;11.968;2022-12-20T02:05:40;0.80;99.90
16829;DHT22;8531;48.078;11.968;2022-12-20T02:08:07;0.90;99.90
16829;DHT22;8531;48.078;11.968;2022-12-20T02:13:41;0.90;99.90
16829;DHT22;8531;48.078;11.968;2022-12-20T02:16:14;0.90;99.90
16829;DHT22;8531;48.078;11.968;2022-12-20T02:18:48;0.90;99.90
16829;DHT22;8531;48.078;11.968;2022-12-20T02:21:25;0.80;99.90
16829;DHT22;8531;48.078;11.968;2022-12-20T02:32:18;0.80;99.90
16829;DHT22;8531;48.078;11.968;2022-12-20T02:34:47;0.90;99.90
16829;DHT22;8531;48.078;11.968;2022-12-20T02:37:12;0.80;99.90
16829;DHT22;8531;48.078;11.968;2022-12-20T02:39:39;0.90;99.90
16829;DHT22;8531;48.078;11.968;2022-12-20T02:42:09;0.80;99.90
16829;DHT22;8531;48.078;11.968;2022-12-20T02:44:40;0.80;99.90
16829;DHT22;8531;48.078;11.968;2022-12-20T02:47:33;0.80;99.90
16829;DHT22;8531;48.078;11.968;2022-12-20T02:50:00;0.80;99.90
16829;DHT22;8531;48.078;11.968;2022-12-20T02:52:28;0.80;99.90
16829;DHT22;8531;48.078;11.968;2022-12-20T02:54:56;0.80;99.90
16829;DHT22;8531;48.078;11.968;2022-12-20T02:57:39;0.80;99.90
16829;DHT22;8531;48.078;11.968;2022-12-20T03:00:14;0.90;99.90
16829;DHT22;8531;48.078;11.968;2022-12-20T03:02:42;0.80;99.90
16829;DHT22;8531;48.078;11.968;2022-12-20T03:05:27;0.80;99.90
16829;DHT22;8531;48.078;11.968;2022-12-20T03:07:53;0.80;99.90
16829;DHT22;8531;48.078;11.968;2022-12-20T03:10:20;0.80;99.90
16829;DHT22;8531;48.078;11.968;2022-12-20T03:12:46;0.90;99.90
16829;DHT22;8531;48.078;11.968;2022-12-20T03:15:12;0.90;99.90
16829;DHT22;8531;48.078;11.968;2022-12-20T03:17:38;0.80;99.90
16829;DHT22;8531;48.078;11.968;2022-12-20T03:20:05;0.80;99.90
16829;DHT22;8531;48.078;11.968;2022-12-20T03:22:32;0.80;99.90
16829;DHT22;8531;48.078;11.968;2022-12-20T03:24:59;0.80;99.90
16829;DHT22;8531;48.078;11.968;2022-12-20T03:27:25;0.90;99.90
16829;DHT22;8531;48.078;11.968;2022-12-20T03:29:53;0.80;99.90
16829;DHT22;8531;48.078;11.968;2022-12-20T03:32:18;0.90;99.90
16829;DHT22;8531;48.078;11.968;2022-12-20T03:34:45;0.80;99.90
16829;DHT22;8531;48.078;11.968;2022-12-20T03:37:10;0.80;99.90
16829;DHT22;8531;48.078;11.968;2022-12-20T03:39:36;0.80;99.90
16829;DHT22;8531;48.078;11.968;2022-12-20T03:42:02;0.80;99.90
16829;DHT22;8531;48.078;11.968;2022-12-20T03:44:28;0.80;99.90
16829;DHT22;8531;48.078;11.968;2022-12-20T03:46:53;0.70;99.90
16829;DHT22;8531;48.078;11.968;2022-12-20T03:49:19;0.70;99.90
16829;DHT22;8531;48.078;11.968;2022-12-20T03:51:45;0.70;99.90
16829;DHT22;8531;48.078;11.968;2022-12-20T03:54:11;0.70;99.90
16829;DHT22;8531;48.078;11.968;2022-12-20T03:56:36;0.80;99.90
16829;DHT22;8531;48.078;11.968;2022-12-20T03:59:02;0.80;99.90
16829;DHT22;8531;48.078;11.968;2022-12-20T04:01:29;0.90;99.90
16829;DHT22;8531;48.078;11.968;2022-12-20T04:03:55;0.90;99.90
16829;DHT22;8531;48.078;11.968;2022-12-20T04:06:22;0.90;99.90
16829;DHT22;8531;48.078;11.968;2022-12-20T04:08:48;1.00;99.90
16829;DHT22;8531;48.078;11.968;2022-12-20T04:11:14;1.00;99.90
16829;DHT22;8531;48.078;11.968;2022-12-20T04:13:49;1.10;99.90
16829;DHT22;8531;48.078;11.968;2022-12-20T04:16:17;1.00;99.90
16829;DHT22;8531;48.078;11.968;2022-12-20T04:18:43;1.00;99.90
16829;DHT22;8531;48.078;11.968;2022-12-20T04:21:10;1.10;99.90
16829;DHT22;8531;48.078;11.968;2022-12-20T04:23:37;1.10;99.90
16829;DHT22;8531;48.078;11.968;2022-12-20T04:26:04;1.10;99.90
16829;DHT22;8531;48.078;11.968;2022-12-20T04:28:31;1.10;99.90
16829;DHT22;8531;48.078;11.968;2022-12-20T04:30:57;1.00;99.90
16829;DHT22;8531;48.078;11.968;2022-12-20T04:33:24;1.00;99.90
16829;DHT22;8531;48.078;11.968;2022-12-20T04:35:50;1.00;99.90
16829;DHT22;8531;48.078;11.968;2022-12-20T04:38:17;1.00;99.90
16829;DHT22;8531;48.078;11.968;2022-12-20T04:40:42;0.90;99.90
16829;DHT22;8531;48.078;11.968;2022-12-20T04:43:08;1.00;99.90
16829;DHT22;8531;48.078;11.968;2022-12-20T04:45:34;1.00;99.90
16829;DHT22;8531;48.078;11.968;2022-12-20T04:48:00;1.00;99.90
16829;DHT22;8531;48.078;11.968;2022-12-20T04:50:26;1.00;99.90
16829;DHT22;8531;48.078;11.968;2022-12-20T04:52:52;1.00;99.90
16829;DHT22;8531;48.078;11.968;2022-12-20T04:55:37;1.00;99.90
16829;DHT22;8531;48.078;11.968;2022-12-20T04:58:03;0.90;99.90
16829;DHT22;8531;48.078;11.968;2022-12-20T05:00:29;0.90;99.90
16829;DHT22;8531;48.078;11.968;2022-12-20T05:02:55;1.00;99.90
16829;DHT22;8531;48.078;11.968;2022-12-20T05:05:21;1.00;99.90
16829;DHT22;8531;48.078;11.968;2022-12-20T05:07:47;1.00;99.90
16829;DHT22;8531;48.078;11.968;2022-12-20T05:10:13;1.10;99.90
16829;DHT22;8531;48.078;11.968;2022-12-20T05:12:38;1.00;99.90
16829;DHT22;8531;48.078;11.968;2022-12-20T05:15:04;1.10;99.90
16829;DHT22;8531;48.078;11.968;2022-12-20T05:17:30;1.10;99.90
16829;DHT22;8531;48.078;11.968;2022-12-20T05:19:55;1.20;99.90
16829;DHT22;8531;48.078;11.968;2022-12-20T05:22:21;1.30;99.90
16829;DHT22;8531;48.078;11.968;2022-12-20T05:25:05;1.30;99.90
16829;DHT22;8531;48.078;11.968;2022-12-20T05:27:50;1.30;99.90
16829;DHT22;8531;48.078;11.968;2022-12-20T05:30:16;1.30;99.90
16829;DHT22;8531;48.078;11.968;2022-12-20T05:32:41;1.40;99.90
16829;DHT22;8531;48.078;11.968;2022-12-20T05:35:08;1.40;99.90
16829;DHT22;8531;48.078;11.968;2022-12-20T05:37:33;1.40;99.90
16829;DHT22;8531;48.078;11.968;2022-12-20T05:39:59;1.40;99.90
16829;DHT22;8531;48.078;11.968;2022-12-20T05:42:25;1.40;99.90
16829;DHT22;8531;48.078;11.968;2022-12-20T05:44:50;1.50;99.90
16829;DHT22;8531;48.078;11.968;2022-12-20T05:47:16;1.40;99.90
16829;DHT22;8531;48.078;11.968;2022-12-20T05:49:42;1.50;99.90
16829;DHT22;8531;48.078;11.968;2022-12-20T05:52:07;1.50;99.90
16829;DHT22;8531;48.078;11.968;2022-12-20T05:54:33;1.50;99.90
16829;DHT22;8531;48.078;11.968;2022-12-20T05:56:59;1.60;99.90
16829;DHT22;8531;48.078;11.968;2022-12-20T05:59:24;1.60;99.90
16829;DHT22;8531;48.078;11.968;2022-12-20T06:01:50;1.70;99.90
16829;DHT22;8531;48.078;11.968;2022-12-20T06:04:16;1.70;99.90
16829;DHT22;8531;48.078;11.968;2022-12-20T06:06:41;1.70;99.90
16829;DHT22;8531;48.078;11.968;2022-12-20T06:09:07;1.70;99.90
16829;DHT22;8531;48.078;11.968;2022-12-20T06:11:33;1.70;99.90
16829;DHT22;8531;48.078;11.968;2022-12-20T06:13:58;1.60;99.90
16829;DHT22;8531;48.078;11.968;2022-12-20T06:16:24;1.60;99.90
16829;DHT22;8531;48.078;11.968;2022-12-20T06:18:50;1.60;99.90
16829;DHT22;8531;48.078;11.968;2022-12-20T06:21:16;1.60;99.90
16829;DHT22;8531;48.078;11.968;2022-12-20T06:23:42;1.70;99.90
16829;DHT22;8531;48.078;11.968;2022-12-20T06:26:08;1.70;99.90
16829;DHT22;8531;48.078;11.968;2022-12-20T06:28:34;1.70;99.90
16829;DHT22;8531;48.078;11.968;2022-12-20T06:31:07;1.70;99.90
16829;DHT22;8531;48.078;11.968;2022-12-20T06:33:33;1.80;99.90
16829;DHT22;8531;48.078;11.968;2022-12-20T06:35:58;1.80;99.90
16829;DHT22;8531;48.078;11.968;2022-12-20T06:38:24;1.80;99.90
16829;DHT22;8531;48.078;11.968;2022-12-20T06:40:50;1.90;99.90
16829;DHT22;8531;48.078;11.968;2022-12-20T06:43:15;1.90;99.90
16829;DHT22;8531;48.078;11.968;2022-12-20T06:45:42;1.90;99.90
16829;DHT22;8531;48.078;11.968;2022-12-20T06:48:07;1.90;99.90
16829;DHT22;8531;48.078;11.968;2022-12-20T06:50:33;1.90;99.90
16829;DHT22;8531;48.078;11.968;2022-12-20T06:52:59;1.90;99.90
16829;DHT22;8531;48.078;11.968;2022-12-20T06:55:24;2.00;99.90
16829;DHT22;8531;48.078;11.968;2022-12-20T06:57:50;2.00;99.90
16829;DHT22;8531;48.078;11.968;2022-12-20T07:00:16;2.00;99.90
16829;DHT22;8531;48.078;11.968;2022-12-20T07:02:42;2.00;99.90
16829;DHT22;8531;48.078;11.968;2022-12-20T07:05:09;2.00;99.90
16829;DHT22;8531;48.078;11.968;2022-12-20T07:07:35;2.00;99.90
16829;DHT22;8531;48.078;11.968;2022-12-20T07:10:01;2.00;99.90
16829;DHT22;8531;48.078;11.968;2022-12-20T07:12:27;2.10;99.90
16829;DHT22;8531;48.078;11.968;2022-12-20T07:14:53;2.10;99.90
16829;DHT22;8531;48.078;11.968;2022-12-20T07:17:19;2.10;99.90
16829;DHT22;8531;48.078;11.968;2022-12-20T07:19:45;2.20;99.90
16829;DHT22;8531;48.078;11.968;2022-12-20T07:22:11;2.20;99.90
16829;DHT22;8531;48.078;11.968;2022-12-20T07:24:37;2.20;99.90
16829;DHT22;8531;48.078;11.968;2022-12-20T07:27:04;2.20;99.90
16829;DHT22;8531;48.078;11.968;2022-12-20T07:29:29;2.20;99.90
16829;DHT22;8531;48.078;11.968;2022-12-20T07:31:55;2.20;99.90
16829;DHT22;8531;48.078;11.968;2022-12-20T07:34:21;2.30;99.90
16829;DHT22;8531;48.078;11.968;2022-12-20T07:36:47;2.30;99.90
16829;DHT22;8531;48.078;11.968;2022-12-20T07:39:15;2.30;99.90
16829;DHT22;8531;48.078;11.968;2022-12-20T07:41:41;2.30;99.90
16829;DHT22;8531;48.078;11.968;2022-12-20T07:44:07;2.30;99.90
16829;DHT22;8531;48.078;11.968;2022-12-20T07:46:33;2.30;99.90
16829;DHT22;8531;48.078;11.968;2022-12-20T07:48:59;2.30;99.90
16829;DHT22;8531;48.078;11.968;2022-12-20T07:51:30;2.30;99.90
16829;DHT22;8531;48.078;11.968;2022-12-20T07:56:45;2.40;99.90
16829;DHT22;8531;48.078;11.968;2022-12-20T07:59:14;2.40;99.90
16829;DHT22;8531;48.078;11.968;2022-12-20T08:01:41;2.50;99.90
16829;DHT22;8531;48.078;11.968;2022-12-20T08:04:13;2.40;99.90
16829;DHT22;8531;48.078;11.968;2022-12-20T08:06:40;2.40;99.90
16829;DHT22;8531;48.078;11.968;2022-12-20T08:09:06;2.50;99.90
16829;DHT22;8531;48.078;11.968;2022-12-20T08:11:36;2.50;99.90
16829;DHT22;8531;48.078;11.968;2022-12-20T08:14:03;2.40;99.90
16829;DHT22;8531;48.078;11.968;2022-12-20T08:16:29;2.40;99.90
16829;DHT22;8531;48.078;11.968;2022-12-20T08:18:56;2.50;99.90
16829;DHT22;8531;48.078;11.968;2022-12-20T08:21:21;2.50;99.90
16829;DHT22;8531;48.078;11.968;2022-12-20T08:23:47;2.50;99.90
16829;DHT22;8531;48.078;11.968;2022-12-20T08:26:13;2.50;99.90
16829;DHT22;8531;48.078;11.968;2022-12-20T08:28:39;2.50;99.90
16829;DHT22;8531;48.078;11.968;2022-12-20T08:31:06;2.50;99.90
16829;DHT22;8531;48.078;11.968;2022-12-20T08:33:34;2.50;99.90
16829;DHT22;8531;48.078;11.968;2022-12-20T08:36:02;2.50;99.90
16829;DHT22;8531;48.078;11.968;2022-12-20T08:38:28;2.60;99.90
16829;DHT22;8531;48.078;11.968;2022-12-20T08:41:04;2.60;99.90
16829;DHT22;8531;48.078;11.968;2022-12-20T08:43:31;2.60;99.90
16829;DHT22;8531;48.078;11.968;2022-12-20T08:45:57;2.60;99.90
16829;DHT22;8531;48.078;11.968;2022-12-20T08:48:23;2.70;99.90
16829;DHT22;8531;48.078;11.968;2022-12-20T08:51:03;2.70;99.90
16829;DHT22;8531;48.078;11.968;2022-12-20T08:53:30;2.80;99.90
16829;DHT22;8531;48.078;11.968;2022-12-20T08:56:22;2.80;99.90
16829;DHT22;8531;48.078;11.968;2022-12-20T08:58:48;2.80;99.90
16829;DHT22;8531;48.078;11.968;2022-12-20T09:01:17;2.80;99.90
16829;DHT22;8531;48.078;11.968;2022-12-20T09:03:43;2.90;99.90
16829;DHT22;8531;48.078;11.968;2022-12-20T09:06:18;2.90;99.90
16829;DHT22;8531;48.078;11.968;2022-12-20T09:08:45;2.90;99.90
16829;DHT22;8531;48.078;11.968;2022-12-20T09:11:18;2.90;99.90
16829;DHT22;8531;48.078;11.968;2022-12-20T09:13:45;2.90;99.90
16829;DHT22;8531;48.078;11.968;2022-12-20T09:16:14;2.90;99.90
16829;DHT22;8531;48.078;11.968;2022-12-20T09:18:40;2.90;99.90
16829;DHT22;8531;48.078;11.968;2022-12-20T09:21:07;2.80;99.90
16829;DHT22;8531;48.078;11.968;2022-12-20T09:23:34;2.90;99.90
16829;DHT22;8531;48.078;11.968;2022-12-20T09:26:20;2.90;99.90
16829;DHT22;8531;48.078;11.968;2022-12-20T09:28:47;3.00;99.90
16829;DHT22;8531;48.078;11.968;2022-12-20T09:31:15;3.00;99.90
16829;DHT22;8531;48.078;11.968;2022-12-20T09:33:42;3.10;99.90
16829;DHT22;8531;48.078;11.968;2022-12-20T09:36:19;3.20;99.90
16829;DHT22;8531;48.078;11.968;2022-12-20T09:38:45;3.20;99.90
16829;DHT22;8531;48.078;11.968;2022-12-20T09:43:57;3.20;99.90
16829;DHT22;8531;48.078;11.968;2022-12-20T09:46:24;3.20;99.90
16829;DHT22;8531;48.078;11.968;2022-12-20T09:48:50;3.20;99.90
16829;DHT22;8531;48.078;11.968;2022-12-20T09:54:21;3.30;99.90
16829;DHT22;8531;48.078;11.968;2022-12-20T09:59:36;3.40;99.90
16829;DHT22;8531;48.078;11.968;2022-12-20T10:02:11;3.40;99.90
16829;DHT22;8531;48.078;11.968;2022-12-20T10:04:37;3.50;99.90
16829;DHT22;8531;48.078;11.968;2022-12-20T10:10:48;3.50;99.90
16829;DHT22;8531;48.078;11.968;2022-12-20T10:22:22;3.50;99.90
16829;DHT22;8531;48.078;11.968;2022-12-20T10:25:05;3.50;99.90
16829;DHT22;8531;48.078;11.968;2022-12-20T10:27:42;3.50;99.90
16829;DHT22;8531;48.078;11.968;2022-12-20T10:30:15;3.60;99.90
16829;DHT22;8531;48.078;11.968;2022-12-20T10:32:44;3.50;99.90
16829;DHT22;8531;48.078;11.968;2022-12-20T10:38:05;3.60;99.90
16829;DHT22;8531;48.078;11.968;2022-12-20T10:40:39;3.70;99.90
16829;DHT22;8531;48.078;11.968;2022-12-20T10:43:12;3.70;99.90
16829;DHT22;8531;48.078;11.968;2022-12-20T10:45:41;3.80;99.90
16829;DHT22;8531;48.078;11.968;2022-12-20T10:48:34;3.80;99.90
16829;DHT22;8531;48.078;11.968;2022-12-20T10:51:14;3.80;99.90
16829;DHT22;8531;48.078;11.968;2022-12-20T10:56:36;3.90;99.90
16829;DHT22;8531;48.078;11.968;2022-12-20T11:01:43;4.00;99.90
16829;DHT22;8531;48.078;11.968;2022-12-20T11:04:30;3.90;99.90
16829;DHT22;8531;48.078;11.968;2022-12-20T11:06:58;4.00;99.90
16829;DHT22;8531;48.078;11.968;2022-12-20T11:09:31;4.00;99.90
16829;DHT22;8531;48.078;11.968;2022-12-20T11:14:26;4.20;99.90
16829;DHT22;8531;48.078;11.968;2022-12-20T11:16:53;4.30;99.90
16829;DHT22;8531;48.078;11.968;2022-12-20T11:37:26;4.30;99.90
16829;DHT22;8531;48.078;11.968;2022-12-20T11:40:30;4.40;99.90
16829;DHT22;8531;48.078;11.968;2022-12-20T11:54:18;4.30;99.90
16829;DHT22;8531;48.078;11.968;2022-12-20T11:56:48;4.40;99.90
16829;DHT22;8531;48.078;11.968;2022-12-20T11:59:34;4.40;99.90
16829;DHT22;8531;48.078;11.968;2022-12-20T12:02:12;4.40;99.90
16829;DHT22;8531;48.078;11.968;2022-12-20T12:07:34;4.50;99.90
16829;DHT22;8531;48.078;11.968;2022-12-20T12:10:05;4.50;99.90
16829;DHT22;8531;48.078;11.968;2022-12-20T12:12:43;4.50;99.90
16829;DHT22;8531;48.078;11.968;2022-12-20T12:15:28;4.50;99.90
16829;DHT22;8531;48.078;11.968;2022-12-20T12:18:15;4.50;99.90
16829;DHT22;8531;48.078;11.968;2022-12-20T12:21:02;4.50;99.90
16829;DHT22;8531;48.078;11.968;2022-12-20T12:24:07;4.60;99.90
16829;DHT22;8531;48.078;11.968;2022-12-20T12:26:42;4.60;99.90
16829;DHT22;8531;48.078;11.968;2022-12-20T12:43:12;4.30;99.90
16829;DHT22;8531;48.078;11.968;2022-12-20T12:45:48;4.40;99.90
16829;DHT22;8531;48.078;11.968;2022-12-20T12:48:22;4.40;99.90
16829;DHT22;8531;48.078;11.968;2022-12-20T12:50:55;4.40;99.90
16829;DHT22;8531;48.078;11.968;2022-12-20T13:01:51;4.40;99.90
16829;DHT22;8531;48.078;11.968;2022-12-20T13:11:51;4.30;99.90
16829;DHT22;8531;48.078;11.968;2022-12-20T13:16:51;4.50;99.90
16829;DHT22;8531;48.078;11.968;2022-12-20T13:19:38;4.50;99.90
16829;DHT22;8531;48.078;11.968;2022-12-20T13:24:54;4.60;99.90
16829;DHT22;8531;48.078;11.968;2022-12-20T13:27:30;4.60;99.90
16829;DHT22;8531;48.078;11.968;2022-12-20T13:40:45;4.50;99.90
16829;DHT22;8531;48.078;11.968;2022-12-20T13:43:35;4.50;99.90
16829;DHT22;8531;48.078;11.968;2022-12-20T13:51:25;4.60;99.90
16829;DHT22;8531;48.078;11.968;2022-12-20T13:58:58;4.70;99.90
16829;DHT22;8531;48.078;11.968;2022-12-20T14:01:28;4.60;99.90
16829;DHT22;8531;48.078;11.968;2022-12-20T14:03:56;4.50;99.90
16829;DHT22;8531;48.078;11.968;2022-12-20T14:06:24;4.50;99.90
16829;DHT22;8531;48.078;11.968;2022-12-20T14:08:51;4.60;99.90
16829;DHT22;8531;48.078;11.968;2022-12-20T14:11:20;4.60;99.90
16829;DHT22;8531;48.078;11.968;2022-12-20T14:16:22;4.50;99.90
16829;DHT22;8531;48.078;11.968;2022-12-20T14:21:21;4.50;99.90
16829;DHT22;8531;48.078;11.968;2022-12-20T14:23:49;4.40;99.90
16829;DHT22;8531;48.078;11.968;2022-12-20T14:26:18;4.40;99.90
16829;DHT22;8531;48.078;11.968;2022-12-20T14:28:47;4.40;99.90
16829;DHT22;8531;48.078;11.968;2022-12-20T14:36:44;4.50;99.90
16829;DHT22;8531;48.078;11.968;2022-12-20T14:39:31;4.60;99.90
16829;DHT22;8531;48.078;11.968;2022-12-20T14:42:00;4.50;99.90
16829;DHT22;8531;48.078;11.968;2022-12-20T14:44:29;4.40;99.90
16829;DHT22;8531;48.078;11.968;2022-12-20T14:49:33;4.20;99.90
16829;DHT22;8531;48.078;11.968;2022-12-20T14:54:44;3.90;99.90
16829;DHT22;8531;48.078;11.968;2022-12-20T14:57:22;3.80;99.90
16829;DHT22;8531;48.078;11.968;2022-12-20T15:08:27;3.70;99.90
16829;DHT22;8531;48.078;11.968;2022-12-20T15:16:04;3.60;99.90
16829;DHT22;8531;48.078;11.968;2022-12-20T15:18:30;3.70;99.90
16829;DHT22;8531;48.078;11.968;2022-12-20T15:21:06;3.70;99.90
16829;DHT22;8531;48.078;11.968;2022-12-20T15:23:35;3.70;99.90
16829;DHT22;8531;48.078;11.968;2022-12-20T15:26:01;3.60;99.90
16829;DHT22;8531;48.078;11.968;2022-12-20T15:28:27;3.60;99.90
16829;DHT22;8531;48.078;11.968;2022-12-20T15:30:53;3.60;99.90
16829;DHT22;8531;48.078;11.968;2022-12-20T15:33:27;3.60;99.90
16829;DHT22;8531;48.078;11.968;2022-12-20T15:35:54;3.60;99.90
16829;DHT22;8531;48.078;11.968;2022-12-20T15:38:23;3.60;99.90
16829;DHT22;8531;48.078;11.968;2022-12-20T15:40:53;3.60;99.90
16829;DHT22;8531;48.078;11.968;2022-12-20T15:43:21;3.60;99.90
16829;DHT22;8531;48.078;11.968;2022-12-20T15:45:51;3.60;99.90
16829;DHT22;8531;48.078;11.968;2022-12-20T15:48:22;3.60;99.90
16829;DHT22;8531;48.078;11.968;2022-12-20T15:50:56;3.60;99.90
16829;DHT22;8531;48.078;11.968;2022-12-20T15:53:30;3.60;99.90
16829;DHT22;8531;48.078;11.968;2022-12-20T15:55:57;3.60;99.90
16829;DHT22;8531;48.078;11.968;2022-12-20T15:58:23;3.50;99.90
16829;DHT22;8531;48.078;11.968;2022-12-20T16:00:50;3.40;99.90
16829;DHT22;8531;48.078;11.968;2022-12-20T16:03:29;3.40;99.90
16829;DHT22;8531;48.078;11.968;2022-12-20T16:05:55;3.40;99.90
16829;DHT22;8531;48.078;11.968;2022-12-20T16:08:21;3.40;99.90
16829;DHT22;8531;48.078;11.968;2022-12-20T16:10:47;3.50;99.90
16829;DHT22;8531;48.078;11.968;2022-12-20T16:13:15;3.50;99.90
16829;DHT22;8531;48.078;11.968;2022-12-20T16:15:43;3.50;99.90
16829;DHT22;8531;48.078;11.968;2022-12-20T16:18:09;3.50;99.90
16829;DHT22;8531;48.078;11.968;2022-12-20T16:20:35;3.50;99.90
16829;DHT22;8531;48.078;11.968;2022-12-20T16:23:00;3.50;99.90
16829;DHT22;8531;48.078;11.968;2022-12-20T16:25:32;3.50;99.90
16829;DHT22;8531;48.078;11.968;2022-12-20T16:27:58;3.50;99.90
16829;DHT22;8531;48.078;11.968;2022-12-20T16:30:26;3.40;99.90
16829;DHT22;8531;48.078;11.968;2022-12-20T16:32:52;3.50;99.90
16829;DHT22;8531;48.078;11.968;2022-12-20T16:37:49;3.40;99.90
16829;DHT22;8531;48.078;11.968;2022-12-20T16:40:14;3.40;99.90
16829;DHT22;8531;48.078;11.968;2022-12-20T16:42:40;3.40;99.90
16829;DHT22;8531;48.078;11.968;2022-12-20T16:45:12;3.30;99.90
16829;DHT22;8531;48.078;11.968;2022-12-20T16:47:40;3.30;99.90
16829;DHT22;8531;48.078;11.968;2022-12-20T16:50:06;3.30;99.90
16829;DHT22;8531;48.078;11.968;2022-12-20T16:52:32;3.30;99.90
16829;DHT22;8531;48.078;11.968;2022-12-20T16:55:02;3.30;99.90
16829;DHT22;8531;48.078;11.968;2022-12-20T16:57:28;3.30;99.90
16829;DHT22;8531;48.078;11.968;2022-12-20T16:59:54;3.40;99.90
16829;DHT22;8531;48.078;11.968;2022-12-20T17:02:28;3.40;99.90
16829;DHT22;8531;48.078;11.968;2022-12-20T17:04:54;3.30;99.90
16829;DHT22;8531;48.078;11.968;2022-12-20T17:07:20;3.10;99.90
16829;DHT22;8531;48.078;11.968;2022-12-20T17:09:46;3.00;99.90
16829;DHT22;8531;48.078;11.968;2022-12-20T17:12:14;3.10;99.90
16829;DHT22;8531;48.078;11.968;2022-12-20T17:14:40;3.00;99.90
16829;DHT22;8531;48.078;11.968;2022-12-20T17:17:06;3.00;99.90
16829;DHT22;8531;48.078;11.968;2022-12-20T17:19:32;3.10;99.90
16829;DHT22;8531;48.078;11.968;2022-12-20T17:21:58;3.10;99.90
16829;DHT22;8531;48.078;11.968;2022-12-20T17:24:25;3.10;99.90
16829;DHT22;8531;48.078;11.968;2022-12-20T17:26:52;3.10;99.90
16829;DHT22;8531;48.078;11.968;2022-12-20T17:29:18;3.10;99.90
16829;DHT22;8531;48.078;11.968;2022-12-20T17:31:45;3.10;99.90
16829;DHT22;8531;48.078;11.968;2022-12-20T17:34:25;3.20;99.90
16829;DHT22;8531;48.078;11.968;2022-12-20T17:36:54;3.10;99.90
16829;DHT22;8531;48.078;11.968;2022-12-20T17:39:21;3.20;99.90
16829;DHT22;8531;48.078;11.968;2022-12-20T17:41:47;3.20;99.90
16829;DHT22;8531;48.078;11.968;2022-12-20T17:44:27;3.30;99.90
16829;DHT22;8531;48.078;11.968;2022-12-20T17:46:54;3.30;99.90
16829;DHT22;8531;48.078;11.968;2022-12-20T17:49:20;3.30;99.90
16829;DHT22;8531;48.078;11.968;2022-12-20T17:51:48;3.20;99.90
16829;DHT22;8531;48.078;11.968;2022-12-20T17:54:19;3.20;99.90
16829;DHT22;8531;48.078;11.968;2022-12-20T17:56:46;3.20;99.90
16829;DHT22;8531;48.078;11.968;2022-12-20T17:59:12;3.20;99.90
16829;DHT22;8531;48.078;11.968;2022-12-20T18:01:39;3.20;99.90
16829;DHT22;8531;48.078;11.968;2022-12-20T18:04:06;3.20;99.90
16829;DHT22;8531;48.078;11.968;2022-12-20T18:06:34;3.30;99.90
16829;DHT22;8531;48.078;11.968;2022-12-20T18:09:02;3.30;99.90
16829;DHT22;8531;48.078;11.968;2022-12-20T18:11:29;3.30;99.90
16829;DHT22;8531;48.078;11.968;2022-12-20T18:13:57;3.30;99.90
16829;DHT22;8531;48.078;11.968;2022-12-20T18:16:28;3.30;99.90
16829;DHT22;8531;48.078;11.968;2022-12-20T18:18:55;3.40;99.90
16829;DHT22;8531;48.078;11.968;2022-12-20T18:21:24;3.50;99.90
16829;DHT22;8531;48.078;11.968;2022-12-20T18:23:50;3.50;99.90
16829;DHT22;8531;48.078;11.968;2022-12-20T18:26:21;3.60;99.90
16829;DHT22;8531;48.078;11.968;2022-12-20T18:28:49;3.60;99.90
16829;DHT22;8531;48.078;11.968;2022-12-20T18:31:22;3.60;99.90
16829;DHT22;8531;48.078;11.968;2022-12-20T18:33:52;3.60;99.90
16829;DHT22;8531;48.078;11.968;2022-12-20T18:36:21;3.70;99.90
16829;DHT22;8531;48.078;11.968;2022-12-20T18:38:49;3.80;99.90
16829;DHT22;8531;48.078;11.968;2022-12-20T18:41:17;3.70;99.90
16829;DHT22;8531;48.078;11.968;2022-12-20T18:43:44;3.70;99.90